createdAt,value
2022-10-29T00:03:36.941Z,4.75
2022-10-29T00:07:38.542Z,3.63
2022-10-29T00:11:40.636Z,4.57
2022-10-29T00:15:44.568Z,4.95
2022-10-29T00:19:46.311Z,4.45
2022-10-29T00:23:48.197Z,4.10
2022-10-29T00:27:49.925Z,4.35
2022-10-29T00:31:51.636Z,5.40
2022-10-29T00:35:56.270Z,4.28
2022-10-29T00:39:58.112Z,4.38
2022-10-29T00:44:14.696Z,5.97
2022-10-29T00:48:16.822Z,4.95
2022-10-29T00:52:19.872Z,5.15
2022-10-29T00:56:22.213Z,4.40
2022-10-29T01:00:24.014Z,5.07
2022-10-29T01:04:25.697Z,5.00
2022-10-29T01:08:27.142Z,5.95
2022-10-29T01:12:48.668Z,4.82
2022-10-29T01:17:01.538Z,4.00
2022-10-29T01:21:22.807Z,4.68
2022-10-29T01:25:48.814Z,4.57
2022-10-29T01:29:55.520Z,5.78
2022-10-29T01:34:17.679Z,4.32
2022-10-29T01:38:40.388Z,5.78
2022-10-29T01:43:00.181Z,5.82
2022-10-29T01:47:04.118Z,4.65
2022-10-29T01:51:12.219Z,5.57
2022-10-29T01:55:22.513Z,5.78
2022-10-29T01:59:35.763Z,7.57
2022-10-29T02:04:09.817Z,5.93
2022-10-29T02:08:24.833Z,5.55
2022-10-29T02:12:29.963Z,6.13
2022-10-29T02:16:31.858Z,5.40
2022-10-29T02:20:33.765Z,4.82
2022-10-29T02:24:35.742Z,5.50
2022-10-29T02:28:37.289Z,6.60
2022-10-29T02:32:38.826Z,5.95
2022-10-29T02:36:40.291Z,6.47
2022-10-29T02:40:41.706Z,5.03
2022-10-29T02:44:43.266Z,6.25
2022-10-29T02:48:45.408Z,5.40
2022-10-29T02:52:46.985Z,4.53
2022-10-29T02:56:48.458Z,6.05
2022-10-29T03:00:50.977Z,5.43
2022-10-29T03:04:52.478Z,5.57
2022-10-29T03:08:55.491Z,5.28
2022-10-29T03:12:59.742Z,5.53
2022-10-29T03:17:04.113Z,5.18
2022-10-29T03:21:05.779Z,4.65
2022-10-29T03:25:12.999Z,4.65
2022-10-29T03:29:14.366Z,5.35
2022-10-29T03:33:18.626Z,5.78
2022-10-29T03:37:20.065Z,6.30
2022-10-29T03:41:21.473Z,5.43
2022-10-29T03:45:22.976Z,5.07
2022-10-29T03:49:24.398Z,6.13
2022-10-29T03:53:26.728Z,7.13
2022-10-29T03:57:28.442Z,5.50
2022-10-29T04:01:30.485Z,6.05
2022-10-29T04:05:32.214Z,6.20
2022-10-29T04:09:33.813Z,7.05
2022-10-29T04:13:35.758Z,6.65
2022-10-29T04:17:39.113Z,6.18
2022-10-29T04:30:24.709Z,5.97
2022-10-29T04:34:26.318Z,5.93
2022-10-29T04:38:28.369Z,6.57
2022-10-29T04:42:29.826Z,6.70
2022-10-29T04:46:31.432Z,6.80
2022-10-29T04:50:33.472Z,5.78
2022-10-29T04:54:35.210Z,7.13
2022-10-29T04:58:36.918Z,6.63
2022-10-29T05:02:38.612Z,6.13
2022-10-29T05:06:40.551Z,5.70
2022-10-29T05:10:41.996Z,6.07
2022-10-29T05:14:43.461Z,6.95
2022-10-29T05:18:46.463Z,6.65
2022-10-29T05:22:48.016Z,6.82
2022-10-29T05:26:52.636Z,5.70
2022-10-29T05:30:54.430Z,5.75
2022-10-29T05:34:55.979Z,5.63
2022-10-29T05:38:57.436Z,6.07
2022-10-29T05:43:02.403Z,6.00
2022-10-29T05:47:06.469Z,5.18
2022-10-29T05:51:07.943Z,5.43
2022-10-29T05:55:09.880Z,5.38
2022-10-29T05:59:11.379Z,6.32
2022-10-29T06:03:18.473Z,5.68
2022-10-29T06:07:20.042Z,6.00
2022-10-29T06:11:21.590Z,5.30
2022-10-29T06:15:26.283Z,6.28
2022-10-29T06:19:28.000Z,4.85
2022-10-29T06:23:29.681Z,5.15
2022-10-29T06:27:31.101Z,5.90
2022-10-29T06:31:35.027Z,5.10
2022-10-29T06:35:36.592Z,4.93
2022-10-29T06:39:43.036Z,5.53
2022-10-29T06:43:50.151Z,5.03
2022-10-29T06:47:51.617Z,5.65
2022-10-29T06:51:58.456Z,6.53
2022-10-29T06:56:00.351Z,5.38
2022-10-29T07:00:05.688Z,5.05
2022-10-29T07:04:09.857Z,5.32
2022-10-29T07:08:12.080Z,5.07
2022-10-29T07:12:13.773Z,4.88
2022-10-29T07:16:15.798Z,5.15
2022-10-29T07:20:17.341Z,5.88
2022-10-29T07:24:21.777Z,6.03
2022-10-29T07:28:25.658Z,5.55
2022-10-29T07:32:29.378Z,4.63
2022-10-29T07:36:31.488Z,5.30
2022-10-29T07:40:33.394Z,6.25
2022-10-29T07:44:36.477Z,5.75
2022-10-29T07:48:38.053Z,6.00
2022-10-29T07:52:40.466Z,4.35
2022-10-29T07:56:45.114Z,5.20
2022-10-29T08:00:49.571Z,5.35
2022-10-29T08:04:51.057Z,4.40
2022-10-29T08:08:52.488Z,4.95
2022-10-29T08:12:56.336Z,4.60
2022-10-29T08:16:58.079Z,5.40
2022-10-29T08:21:03.612Z,5.63
2022-10-29T08:25:05.363Z,5.97
2022-10-29T08:29:06.740Z,6.28
2022-10-29T08:33:09.581Z,7.05
2022-10-29T08:37:11.174Z,5.80
2022-10-29T08:41:23.199Z,6.97
2022-10-29T08:45:40.000Z,4.85
2022-10-29T08:49:46.572Z,6.00
2022-10-29T08:53:58.802Z,5.82
2022-10-29T08:58:43.414Z,6.35
2022-10-29T09:02:45.030Z,6.13
2022-10-29T09:07:07.838Z,6.70
2022-10-29T09:11:36.974Z,6.38
2022-10-29T09:15:41.517Z,6.65
2022-10-29T09:19:59.094Z,7.35
2022-10-29T09:28:19.121Z,5.90
2022-10-29T09:32:24.957Z,6.60
2022-10-29T09:36:26.721Z,6.32
2022-10-29T09:40:32.545Z,5.72
2022-10-29T09:44:50.820Z,6.57
2022-10-29T09:49:10.797Z,6.60
2022-10-29T09:53:12.291Z,6.15
2022-10-29T09:57:19.067Z,5.97
2022-10-29T10:01:20.731Z,7.47
2022-10-29T10:05:27.969Z,6.05
2022-10-29T10:09:51.919Z,6.60
2022-10-29T10:13:57.090Z,4.70
2022-10-29T10:18:07.502Z,3.53
2022-10-29T10:22:18.584Z,3.78
2022-10-29T10:26:45.397Z,3.42
2022-10-29T10:31:05.722Z,4.65
2022-10-29T10:35:30.622Z,4.00
2022-10-29T10:39:38.922Z,4.97
2022-10-29T10:43:45.205Z,3.95
2022-10-29T10:47:50.840Z,4.20
2022-10-29T10:51:53.758Z,3.88
2022-10-29T10:55:59.955Z,3.20
2022-10-29T11:00:07.910Z,3.95
2022-10-29T11:04:31.871Z,3.67
2022-10-29T11:09:06.300Z,3.00
2022-10-29T11:13:14.305Z,3.83
2022-10-29T11:17:27.104Z,3.30
2022-10-29T11:21:34.550Z,3.13
2022-10-29T11:29:52.563Z,3.30
2022-10-29T11:34:22.691Z,3.38
2022-10-29T11:38:52.326Z,3.88
2022-10-29T11:42:54.461Z,3.17
2022-10-29T11:47:20.054Z,3.53
2022-10-29T11:51:36.448Z,3.30
2022-10-29T11:55:53.863Z,3.40
2022-10-29T12:00:14.955Z,2.85
2022-10-29T12:04:24.391Z,2.83
2022-10-29T12:08:42.681Z,2.42
2022-10-29T12:12:54.491Z,2.88
2022-10-29T12:17:14.060Z,3.20
2022-10-29T12:21:27.398Z,2.78
2022-10-29T12:25:38.468Z,4.63
2022-10-29T12:29:44.100Z,4.25
2022-10-29T12:33:55.754Z,3.25
2022-10-29T12:38:28.353Z,2.47
2022-10-29T12:42:30.981Z,2.67
2022-10-29T12:47:01.376Z,2.15
2022-10-29T12:51:32.895Z,3.10
2022-10-29T12:55:36.533Z,3.97
2022-10-29T12:59:38.031Z,4.68
2022-10-29T13:04:22.278Z,3.13
2022-10-29T13:08:33.430Z,3.35
2022-10-29T13:13:00.142Z,3.80
2022-10-29T13:17:03.710Z,4.80
2022-10-29T13:21:05.650Z,3.60
2022-10-29T13:25:30.152Z,4.38
2022-10-29T13:29:51.692Z,4.20
2022-10-29T13:33:53.082Z,4.60
2022-10-29T13:38:16.199Z,4.22
2022-10-29T13:42:18.026Z,4.72
2022-10-29T13:46:27.351Z,5.97
2022-10-29T13:50:28.817Z,3.55
2022-10-29T13:54:43.466Z,4.50
2022-10-29T13:58:45.668Z,5.00
2022-10-29T14:02:51.906Z,4.80
2022-10-29T14:06:56.202Z,4.07
2022-10-29T14:10:59.647Z,4.68
2022-10-29T14:15:07.115Z,4.38
2022-10-29T14:23:20.112Z,5.50
2022-10-29T14:27:21.531Z,5.20
2022-10-29T14:31:26.168Z,5.15
2022-10-29T14:35:27.873Z,4.72
2022-10-29T14:39:36.971Z,4.32
2022-10-29T14:44:19.783Z,4.38
2022-10-29T14:48:21.661Z,4.35
2022-10-29T14:52:38.140Z,3.88
2022-10-29T14:56:41.058Z,4.32
2022-10-29T15:01:04.819Z,3.95
2022-10-29T15:05:23.007Z,4.43
2022-10-29T15:09:28.266Z,3.78
2022-10-29T15:13:29.924Z,3.72
2022-10-29T15:17:32.035Z,5.68
2022-10-29T15:21:33.590Z,6.03
2022-10-29T15:25:38.750Z,4.65
2022-10-29T15:29:43.092Z,5.03
2022-10-29T15:33:45.286Z,4.78
2022-10-29T15:37:47.009Z,5.03
2022-10-29T15:41:50.592Z,6.35
2022-10-29T15:46:04.623Z,11.40
2022-10-29T15:50:09.830Z,17.02
2022-10-29T15:54:18.018Z,21.38
2022-10-29T15:58:23.313Z,29.42
2022-10-29T16:02:25.973Z,20.45
2022-10-29T16:06:27.553Z,20.75
2022-10-29T16:10:29.264Z,20.55
2022-10-29T16:14:30.922Z,18.38
2022-10-29T16:18:32.793Z,10.20
2022-10-29T16:22:34.201Z,10.15
2022-10-29T16:26:36.184Z,8.02
2022-10-29T16:30:41.087Z,8.20
2022-10-29T16:34:43.054Z,6.47
2022-10-29T16:38:44.726Z,5.43
2022-10-29T16:42:46.769Z,5.35
2022-10-29T16:46:48.207Z,5.60
2022-10-29T16:50:49.948Z,6.68
2022-10-29T16:54:51.450Z,11.90
2022-10-29T16:59:01.604Z,20.05
2022-10-29T17:03:06.744Z,28.38
2022-10-29T17:07:11.514Z,25.90
2022-10-29T17:11:12.916Z,22.85
2022-10-29T17:15:14.792Z,9.48
2022-10-29T17:19:16.605Z,6.20
2022-10-29T17:23:18.173Z,5.05
2022-10-29T17:27:19.620Z,5.32
2022-10-29T17:31:21.482Z,5.38
2022-10-29T17:35:22.911Z,5.45
2022-10-29T17:39:24.548Z,7.15
2022-10-29T17:43:26.269Z,7.05
2022-10-29T17:47:27.738Z,8.02
2022-10-29T17:51:29.514Z,6.60
2022-10-29T17:55:31.130Z,6.53
2022-10-29T17:59:32.719Z,7.32
2022-10-29T18:03:36.475Z,8.65
2022-10-29T18:07:37.916Z,7.75
2022-10-29T18:11:39.809Z,7.57
2022-10-29T18:15:41.283Z,8.02
2022-10-29T18:19:44.149Z,8.32
2022-10-29T18:23:46.285Z,8.02
2022-10-29T18:27:47.730Z,10.13
2022-10-29T18:31:49.136Z,9.05
2022-10-29T18:35:53.995Z,10.20
2022-10-29T18:39:56.858Z,9.75
2022-10-29T18:43:59.457Z,10.07
2022-10-29T18:48:01.245Z,10.27
2022-10-29T18:52:03.051Z,9.40
2022-10-29T18:56:09.539Z,7.88
2022-10-29T19:00:11.918Z,6.75
2022-10-29T19:04:15.014Z,6.75
2022-10-29T19:08:16.578Z,7.97
2022-10-29T19:12:19.148Z,11.50
2022-10-29T19:16:20.770Z,15.98
2022-10-29T19:20:22.237Z,14.70
2022-10-29T19:24:24.049Z,13.38
2022-10-29T19:28:25.646Z,7.20
2022-10-29T19:32:27.043Z,7.00
2022-10-29T19:36:30.071Z,5.57
2022-10-29T19:40:31.626Z,7.32
2022-10-29T19:44:33.112Z,7.18
2022-10-29T19:48:35.354Z,6.78
2022-10-29T19:52:36.754Z,6.53
2022-10-29T19:56:38.353Z,5.60
2022-10-29T20:00:39.970Z,4.93
2022-10-29T20:04:41.419Z,6.75
2022-10-29T20:08:43.149Z,6.82
2022-10-29T20:12:44.785Z,4.97
2022-10-29T20:16:46.348Z,4.80
2022-10-29T20:20:54.431Z,5.55
2022-10-29T20:24:55.898Z,5.55
2022-10-29T20:28:57.342Z,5.28
2022-10-29T20:32:59.215Z,6.47
2022-10-29T20:37:01.237Z,4.32
2022-10-29T20:41:02.665Z,5.78
2022-10-29T20:45:04.539Z,6.93
2022-10-29T20:49:06.013Z,6.55
2022-10-29T20:57:14.237Z,7.78
2022-10-29T21:01:17.990Z,5.90
2022-10-29T21:05:19.587Z,5.43
2022-10-29T21:09:22.466Z,6.13
2022-10-29T21:13:23.937Z,6.13
2022-10-29T21:17:25.609Z,6.57
2022-10-29T21:21:28.370Z,5.07
2022-10-29T21:25:29.973Z,6.35
2022-10-29T21:29:31.398Z,6.03
2022-10-29T21:33:33.087Z,6.03
2022-10-29T21:37:34.514Z,4.88
2022-10-29T21:41:35.940Z,6.00
2022-10-29T21:45:37.374Z,5.22
2022-10-29T21:49:38.826Z,5.90
2022-10-29T21:53:40.404Z,4.57
2022-10-29T21:57:44.903Z,6.50
2022-10-29T22:01:46.408Z,5.07
2022-10-29T22:05:47.943Z,5.22
2022-10-29T22:09:49.413Z,4.88
2022-10-29T22:13:52.190Z,4.80
2022-10-29T22:17:53.591Z,5.70
2022-10-29T22:21:56.000Z,6.25
2022-10-29T22:25:57.673Z,4.88
2022-10-29T22:29:59.139Z,5.43
2022-10-29T22:34:01.617Z,5.32
2022-10-29T22:38:03.154Z,4.28
2022-10-29T22:42:05.109Z,5.43
2022-10-29T22:46:07.700Z,4.75
2022-10-29T22:50:09.373Z,4.75
2022-10-29T22:54:10.822Z,5.22
2022-10-29T22:58:12.419Z,4.45
2022-10-29T23:02:14.300Z,4.75
2022-10-29T23:06:18.078Z,3.90
2022-10-29T23:10:19.863Z,4.70
2022-10-29T23:14:21.433Z,3.42
2022-10-29T23:18:23.222Z,4.65
2022-10-29T23:22:27.358Z,3.40
2022-10-29T23:26:29.442Z,3.35
2022-10-29T23:30:31.137Z,4.28
2022-10-29T23:34:32.531Z,3.30
2022-10-29T23:38:34.277Z,4.40
2022-10-29T23:42:35.652Z,3.58
2022-10-29T23:46:37.249Z,4.25
2022-10-29T23:50:39.167Z,4.03
2022-10-29T23:54:40.655Z,3.47
2022-10-29T23:58:42.182Z,3.20
